Time;durP1;ratioP1;P1;durP2;ratioP2;P2;SDS_P1;SDS_P2;PMS_P1;PMS_P2;Temp;Humidity;BMP_temperature;BMP_pressure;BME280_temperature;BME280_humidity;BME280_pressure;Samples;Min_cycle;Max_cycle;Signal;HPM_P1;HPM_P2
2021/06/04 00:01:17;;;;;;;3.40;3.10;;;;;;;14.64;100.00;98398.34;5012688;28;20200;-82
2021/06/04 00:03:48;;;;;;;4.03;3.67;;;;;;;14.60;100.00;98399.56;5011973;28;20202;-81
2021/06/04 00:06:15;;;;;;;3.17;2.97;;;;;;;14.56;100.00;98406.09;5012647;28;20725;-81
2021/06/04 00:08:49;;;;;;;4.97;4.13;;;;;;;14.60;100.00;98420.75;5012066;28;20677;-82
2021/06/04 00:11:25;;;;;;;4.03;3.10;;;;;;;14.36;100.00;98405.13;5011795;28;20233;-82
2021/06/04 00:13:53;;;;;;;3.90;3.60;;;;;;;14.20;100.00;98421.44;5012007;28;20192;-82
2021/06/04 00:16:25;;;;;;;5.07;3.13;;;;;;;14.08;100.00;98468.25;5012327;28;20627;-83
2021/06/04 00:18:52;;;;;;;4.20;3.27;;;;;;;14.06;100.00;98523.06;5012095;28;20350;-82
2021/06/04 00:21:25;;;;;;;3.17;2.97;;;;;;;14.14;100.00;98564.78;5011894;28;20202;-82
2021/06/04 00:23:53;;;;;;;6.43;3.20;;;;;;;14.27;100.00;98592.75;5011857;28;20191;-83
2021/06/04 00:26:21;;;;;;;3.53;3.23;;;;;;;14.14;100.00;98589.41;5012130;28;20668;-83
2021/06/04 00:28:49;;;;;;;3.10;2.80;;;;;;;14.15;100.00;98590.25;5011534;28;20294;-83
2021/06/04 00:31:16;;;;;;;3.50;3.20;;;;;;;14.18;100.00;98622.56;5011971;28;20275;-82
2021/06/04 00:33:44;;;;;;;4.17;3.00;;;;;;;14.04;100.00;98625.50;5011441;28;20711;-83
2021/06/04 00:36:12;;;;;;;3.53;3.23;;;;;;;14.17;100.00;98628.00;5012564;28;20200;-83
2021/06/04 00:38:40;;;;;;;3.77;3.47;;;;;;;14.11;100.00;98620.56;5012188;28;20279;-83
2021/06/04 00:41:15;;;;;;;4.07;3.03;;;;;;;14.15;100.00;98637.84;5011997;28;20197;-83
2021/06/04 00:43:50;;;;;;;6.47;3.03;;;;;;;14.11;100.00;98547.34;5011371;28;20219;-83
2021/06/04 00:46:17;;;;;;;3.77;3.47;;;;;;;14.13;100.00;98492.53;5012220;28;20206;-82
2021/06/04 00:48:45;;;;;;;2.80;2.60;;;;;;;14.07;100.00;98518.63;5011736;28;20204;-82
2021/06/04 00:51:17;;;;;;;3.40;3.10;;;;;;;13.74;100.00;98578.53;5011760;28;20232;-83
2021/06/04 00:53:47;;;;;;;3.50;3.20;;;;;;;13.68;100.00;98639.78;5011888;28;20667;-82
2021/06/04 00:56:14;;;;;;;2.97;2.67;;;;;;;13.75;100.00;98668.28;5011885;28;20210;-83
2021/06/04 00:58:46;;;;;;;6.53;3.07;;;;;;;13.71;100.00;98679.19;5011848;28;20192;-83
2021/06/04 01:01:16;;;;;;;3.23;3.00;;;;;;;13.74;100.00;98708.03;5011860;28;20191;-83
2021/06/04 01:03:49;;;;;;;4.30;2.93;;;;;;;13.70;100.00;98718.00;5011365;28;20195;-82
2021/06/04 01:06:25;;;;;;;4.23;3.20;;;;;;;13.76;100.00;98712.25;5011893;28;20180;-83
2021/06/04 01:09:11;;;;;;;4.87;3.67;;;;;;;13.82;100.00;98700.38;5011741;28;20203;-82
2021/06/04 01:11:50;;;;;;;3.43;3.10;;;;;;;13.75;100.00;98721.16;5012901;28;20231;-83
2021/06/04 01:14:24;;;;;;;3.50;3.10;;;;;;;13.81;100.00;98746.25;5015239;28;20251;-82
2021/06/04 01:16:58;;;;;;;3.57;3.27;;;;;;;13.73;100.00;98720.41;5015368;28;20196;-82
2021/06/04 01:19:42;;;;;;;5.03;4.30;;;;;;;13.93;100.00;98657.22;5015376;28;20188;-82
2021/06/04 01:22:14;;;;;;;4.37;3.97;;;;;;;13.97;100.00;98574.91;5015270;28;20245;-82
2021/06/04 01:25:14;;;;;;;7.30;4.53;;;;;;;14.06;100.00;98524.88;5015031;28;20184;-83
2021/06/04 01:27:46;;;;;;;6.10;4.23;;;;;;;14.11;100.00;98504.19;5012567;28;20199;-82
2021/06/04 01:30:23;;;;;;;6.03;4.37;;;;;;;14.06;100.00;98498.44;5015080;28;20207;-82
2021/06/04 01:32:52;;;;;;;4.53;4.13;;;;;;;14.06;100.00;98495.78;4999960;28;20261;-83
2021/06/04 01:35:27;;;;;;;4.80;4.40;;;;;;;14.02;100.00;98516.34;4995372;28;20324;-83
2021/06/04 01:37:56;;;;;;;4.53;4.23;;;;;;;14.10;100.00;98528.94;4995539;28;20192;-83
2021/06/04 01:40:27;;;;;;;5.20;4.70;;;;;;;14.05;100.00;98537.25;4995199;28;20240;-83
2021/06/04 01:42:59;;;;;;;5.20;4.33;;;;;;;14.06;100.00;98543.38;4995270;28;20200;-83
2021/06/04 01:45:31;;;;;;;4.70;3.97;;;;;;;14.17;100.00;98540.72;4995223;28;20204;-83
2021/06/04 01:48:06;;;;;;;4.23;3.90;;;;;;;14.16;100.00;98528.44;4995412;28;20192;-83
2021/06/04 01:50:37;;;;;;;5.53;4.00;;;;;;;14.21;100.00;98524.47;4995065;28;20230;-82
2021/06/04 01:53:10;;;;;;;4.80;4.30;;;;;;;14.13;100.00;98513.69;4994770;28;20247;-82
2021/06/04 01:55:43;;;;;;;7.40;4.20;;;;;;;14.19;100.00;98518.44;4995107;28;20189;-83
2021/06/04 01:58:31;;;;;;;4.43;4.13;;;;;;;14.12;100.00;98504.06;4994666;28;20561;-83
2021/06/04 02:01:07;;;;;;;4.70;4.10;;;;;;;14.16;100.00;98512.56;4994682;28;20278;-82
2021/06/04 02:03:37;;;;;;;5.07;4.07;;;;;;;14.09;100.00;98521.97;4994655;28;20181;-83
2021/06/04 02:06:06;;;;;;;4.20;3.70;;;;;;;13.99;100.00;98519.25;4995021;28;20200;-83
2021/06/04 02:08:37;;;;;;;5.10;4.70;;;;;;;14.09;100.00;98545.78;4994530;28;20201;-82
2021/06/04 02:11:15;;;;;;;4.63;4.27;;;;;;;13.99;100.00;98627.63;4994684;28;20208;-82
2021/06/04 02:13:47;;;;;;;4.93;4.53;;;;;;;14.01;100.00;98705.06;4994379;28;20255;-82
2021/06/04 02:16:41;;;;;;;5.93;5.00;;;;;;;13.96;100.00;98779.44;4994715;28;20196;-82
2021/06/04 02:19:28;;;;;;;4.33;3.93;;;;;;;13.93;100.00;98851.06;4994185;28;20200;-82
2021/06/04 02:22:01;;;;;;;5.27;4.30;;;;;;;13.95;100.00;98911.75;4993849;28;20184;-83
2021/06/04 02:24:33;;;;;;;5.07;4.30;;;;;;;13.89;100.00;98973.00;4994322;28;20194;-82
2021/06/04 02:27:04;;;;;;;5.13;4.67;;;;;;;13.85;100.00;99001.47;4994711;28;20193;-82
2021/06/04 02:29:41;;;;;;;6.20;5.67;;;;;;;13.87;100.00;99036.59;4994121;28;20192;-82
2021/06/04 02:32:14;;;;;;;4.70;4.27;;;;;;;13.92;100.00;99115.56;4994317;28;20216;-82
2021/06/04 02:34:45;;;;;;;4.80;4.30;;;;;;;13.91;100.00;99146.44;4994497;28;20190;-81
2021/06/04 02:37:16;;;;;;;10.87;5.83;;;;;;;13.98;100.00;99168.84;4994210;28;20185;-81
2021/06/04 02:39:53;;;;;;;4.80;4.30;;;;;;;13.95;100.00;99161.13;4993777;28;20216;-81
2021/06/04 02:42:24;;;;;;;4.50;4.20;;;;;;;13.96;100.00;99162.00;4994071;28;20193;-81
2021/06/04 02:44:55;;;;;;;9.17;5.13;;;;;;;13.99;100.00;99185.56;4993822;28;20189;-82
2021/06/04 02:47:28;;;;;;;5.80;5.20;;;;;;;13.94;100.00;99233.50;4993852;28;20190;-82
2021/06/04 02:49:56;;;;;;;6.60;5.33;;;;;;;13.92;100.00;99276.84;4993652;28;20189;-82
2021/06/04 02:52:34;;;;;;;5.43;4.93;;;;;;;13.78;100.00;99306.88;4993890;28;20771;-82
2021/06/04 02:55:11;;;;;;;5.23;4.70;;;;;;;13.76;100.00;99285.84;4993582;28;20639;-81
2021/06/04 02:57:39;;;;;;;5.83;4.60;;;;;;;13.79;100.00;99229.28;4993760;28;20189;-82
2021/06/04 03:00:21;;;;;;;5.10;4.60;;;;;;;13.78;100.00;99172.91;4993576;28;20200;-82
2021/06/04 03:02:54;;;;;;;4.63;4.30;;;;;;;13.80;100.00;99125.22;4993858;28;20652;-82
2021/06/04 03:05:27;;;;;;;5.87;4.73;;;;;;;13.77;100.00;99091.91;4993515;28;20212;-81
2021/06/04 03:07:54;;;;;;;4.97;4.53;;;;;;;13.65;100.00;99078.75;4993546;28;20185;-82
2021/06/04 03:10:26;;;;;;;6.30;3.97;;;;;;;13.70;100.00;99092.47;4993221;28;20212;-82
2021/06/04 03:12:54;;;;;;;4.93;4.53;;;;;;;13.68;100.00;99092.59;4993415;28;20185;-82
2021/06/04 03:15:29;;;;;;;5.67;4.70;;;;;;;13.63;100.00;99094.69;4992931;28;20204;-81
2021/06/04 03:17:57;;;;;;;6.77;5.23;;;;;;;13.63;100.00;99104.44;4993226;28;20195;-82
2021/06/04 03:20:27;;;;;;;5.47;4.17;;;;;;;13.65;100.00;99150.09;4993314;28;20194;-82
2021/06/04 03:22:54;;;;;;;4.90;4.60;;;;;;;13.36;100.00;99220.78;4996471;28;20238;-81
2021/06/04 03:25:24;;;;;;;5.10;4.70;;;;;;;13.13;100.00;99286.53;5012022;28;20295;-81
2021/06/04 03:27:52;;;;;;;5.30;4.80;;;;;;;13.24;100.00;99365.09;5011524;28;20195;-83
2021/06/04 03:30:20;;;;;;;6.90;4.93;;;;;;;13.29;100.00;99431.69;5011896;28;20203;-83
2021/06/04 03:32:49;;;;;;;5.33;4.93;;;;;;;13.35;100.00;99470.06;5011351;28;20231;-83
2021/06/04 03:35:16;;;;;;;4.47;4.17;;;;;;;13.45;100.00;99497.59;5010894;28;20207;-81
2021/06/04 03:37:43;;;;;;;5.47;4.90;;;;;;;13.50;100.00;99527.22;5011745;28;20195;-82
2021/06/04 03:40:14;;;;;;;4.90;4.60;;;;;;;13.66;100.00;99556.16;5011673;28;20199;-82
2021/06/04 03:42:42;;;;;;;6.07;5.43;;;;;;;13.71;100.00;99572.56;5011945;28;20314;-82
2021/06/04 03:45:13;;;;;;;6.63;5.67;;;;;;;13.72;100.00;99585.72;5011872;28;20204;-82
2021/06/04 03:47:40;;;;;;;5.27;4.77;;;;;;;13.72;100.00;99590.16;5011587;28;20191;-81
2021/06/04 03:50:11;;;;;;;5.93;4.57;;;;;;;13.72;100.00;99587.50;5011144;28;20675;-83
2021/06/04 03:52:38;;;;;;;4.73;4.33;;;;;;;13.71;100.00;99501.19;5011719;28;20619;-83
2021/06/04 03:55:08;;;;;;;7.10;4.30;;;;;;;13.83;100.00;99436.13;5001608;28;20227;-83
2021/06/04 03:57:37;;;;;;;5.80;5.23;;;;;;;13.86;100.00;99415.63;5011656;28;20682;-82
2021/06/04 04:00:12;;;;;;;5.50;4.87;;;;;;;13.78;100.00;99379.09;5012262;28;20203;-82
2021/06/04 04:02:39;;;;;;;4.87;4.47;;;;;;;13.79;100.00;99313.88;5012458;28;20183;-82
2021/06/04 04:05:10;;;;;;;7.60;4.63;;;;;;;13.91;100.00;99243.44;5012049;28;20200;-82
2021/06/04 04:07:38;;;;;;;6.33;5.77;;;;;;;13.79;100.00;99203.69;5011896;28;20199;-81
2021/06/04 04:10:12;;;;;;;7.20;4.73;;;;;;;13.69;100.00;99312.81;5012006;28;20579;-82
2021/06/04 04:12:40;;;;;;;6.93;5.20;;;;;;;13.53;100.00;99398.38;5012204;28;20604;-82
2021/06/04 04:15:16;;;;;;;7.57;6.00;;;;;;;13.55;100.00;99457.28;4995882;28;20259;-81
2021/06/04 04:17:43;;;;;;;7.07;5.73;;;;;;;13.63;100.00;99471.78;4992661;28;20200;-82
2021/06/04 04:20:13;;;;;;;4.53;4.13;;;;;;;13.72;100.00;99431.56;4991794;28;20204;-82
2021/06/04 04:22:40;;;;;;;5.30;4.90;;;;;;;13.79;100.00;99394.03;4992251;28;20192;-83
2021/06/04 04:25:14;;;;;;;9.53;6.87;;;;;;;13.86;100.00;99351.31;4992051;28;20250;-83
2021/06/04 04:27:41;;;;;;;6.90;6.27;;;;;;;13.95;100.00;99296.00;4992565;28;20200;-83
2021/06/04 04:30:14;;;;;;;7.87;6.60;;;;;;;13.97;100.00;99243.00;4992342;28;20204;-83
2021/06/04 04:32:41;;;;;;;6.03;5.53;;;;;;;13.97;100.00;99221.84;4992063;28;20278;-83
2021/06/04 04:35:10;;;;;;;6.70;5.20;;;;;;;13.96;100.00;99228.94;4992471;28;20635;-84
2021/06/04 04:37:51;;;;;;;5.03;4.53;;;;;;;13.97;100.00;99220.06;4992294;28;20211;-83
2021/06/04 04:40:20;;;;;;;6.77;6.17;;;;;;;13.97;100.00;99184.84;4991922;28;20197;-83
2021/06/04 04:42:48;;;;;;;8.20;7.53;;;;;;;13.97;100.00;99131.94;4992305;28;20628;-83
2021/06/04 04:45:20;;;;;;;6.97;6.37;;;;;;;14.04;100.00;99118.19;4993548;28;20204;-83
2021/06/04 04:47:56;;;;;;;8.03;7.23;;;;;;;14.09;100.00;99109.06;4996155;28;20192;-82
2021/06/04 04:50:25;;;;;;;8.20;7.40;;;;;;;14.22;100.00;99086.91;4995907;28;20196;-82
2021/06/04 04:52:54;;;;;;;6.83;6.20;;;;;;;14.26;100.00;99061.06;4996109;28;20224;-82
2021/06/04 04:55:24;;;;;;;6.20;5.70;;;;;;;14.37;100.00;99023.22;4995972;28;20204;-82
2021/06/04 04:57:51;;;;;;;6.00;5.40;;;;;;;14.45;100.00;98995.22;4996346;28;20275;-82
2021/06/04 05:00:23;;;;;;;6.43;5.80;;;;;;;14.60;100.00;98936.81;4995774;28;20202;-82
2021/06/04 05:02:50;;;;;;;7.13;6.53;;;;;;;14.59;100.00;98919.28;4996020;28;20197;-83
2021/06/04 05:05:18;;;;;;;7.00;6.27;;;;;;;14.65;100.00;98898.47;4995893;28;20197;-83
2021/06/04 05:07:45;;;;;;;7.20;6.60;;;;;;;14.83;100.00;98877.63;4995734;28;20203;-82
2021/06/04 05:10:14;;;;;;;6.17;5.57;;;;;;;14.89;100.00;98850.66;4995766;28;20692;-83
2021/06/04 05:12:40;;;;;;;6.33;5.83;;;;;;;14.94;100.00;98848.47;4995778;28;20232;-82
2021/06/04 05:15:13;;;;;;;6.53;5.93;;;;;;;15.03;100.00;98822.22;4995737;28;20197;-83
2021/06/04 05:17:40;;;;;;;9.17;8.20;;;;;;;15.05;100.00;98799.94;4995683;28;20699;-83
2021/06/04 05:20:08;;;;;;;6.27;5.77;;;;;;;15.04;100.00;98786.84;4995823;28;20201;-83
2021/06/04 05:22:35;;;;;;;6.57;5.97;;;;;;;15.08;100.00;98769.72;4995734;28;20338;-83
2021/06/04 05:25:03;;;;;;;6.00;5.37;;;;;;;15.06;100.00;98769.00;4995443;28;20670;-83
2021/06/04 05:27:31;;;;;;;6.80;6.20;;;;;;;15.06;100.00;98756.59;4995972;28;20211;-82
2021/06/04 05:29:58;;;;;;;6.03;5.53;;;;;;;15.03;100.00;98761.31;4995689;28;20582;-83
2021/06/04 05:32:25;;;;;;;9.17;5.73;;;;;;;14.99;100.00;98761.53;4995116;28;20710;-82
2021/06/04 05:34:52;;;;;;;6.47;5.87;;;;;;;14.94;100.00;98773.50;4995681;28;20688;-83
2021/06/04 05:37:19;;;;;;;6.53;5.83;;;;;;;14.92;100.00;98764.84;4995456;28;20207;-83
2021/06/04 05:39:46;;;;;;;8.10;5.60;;;;;;;14.98;100.00;98749.28;4995550;28;20204;-83
2021/06/04 05:42:13;;;;;;;6.63;6.00;;;;;;;15.01;100.00;98732.31;4998890;28;20650;-82
2021/06/04 05:44:42;;;;;;;6.60;5.80;;;;;;;15.02;100.00;98738.44;5014067;28;20207;-83
2021/06/04 05:47:11;;;;;;;5.90;5.50;;;;;;;15.15;100.00;98718.75;5014670;28;20207;-82
2021/06/04 05:49:38;;;;;;;7.20;5.87;;;;;;;15.19;100.00;98703.44;5014552;28;20243;-83
2021/06/04 05:52:09;;;;;;;8.60;6.83;;;;;;;15.06;100.00;98734.56;5014906;28;20600;-83
2021/06/04 05:54:38;;;;;;;9.17;6.47;;;;;;;15.03;100.00;98788.63;5014336;28;20193;-82
2021/06/04 05:57:05;;;;;;;7.00;6.40;;;;;;;14.96;100.00;98820.09;5013705;28;20209;-82
2021/06/04 05:59:33;;;;;;;5.90;5.30;;;;;;;15.05;100.00;98839.69;5012978;28;20584;-82
2021/06/04 06:02:02;;;;;;;7.37;6.53;;;;;;;15.06;100.00;98851.94;5013038;28;20197;-82
2021/06/04 06:04:28;;;;;;;7.17;6.03;;;;;;;15.23;100.00;98874.44;5007480;28;20213;-83
2021/06/04 06:06:55;;;;;;;5.80;5.37;;;;;;;15.15;100.00;98879.50;5011633;28;20202;-84
2021/06/04 06:09:29;;;;;;;5.37;4.97;;;;;;;15.26;100.00;98857.44;4994744;28;20310;-84
2021/06/04 06:11:56;;;;;;;5.10;4.70;;;;;;;15.30;100.00;98753.72;4994493;28;20321;-83
2021/06/04 06:14:23;;;;;;;5.43;4.57;;;;;;;15.38;100.00;98705.41;4994144;28;20284;-83
2021/06/04 06:16:50;;;;;;;4.97;4.57;;;;;;;15.52;100.00;98704.22;4994763;28;20198;-83
2021/06/04 06:19:19;;;;;;;6.27;5.30;;;;;;;15.61;100.00;98737.91;4994334;28;20213;-83
2021/06/04 06:21:49;;;;;;;5.67;5.17;;;;;;;15.61;100.00;98736.09;4994722;28;20207;-84
2021/06/04 06:24:16;;;;;;;6.20;5.50;;;;;;;15.68;100.00;98734.63;4994268;28;20218;-84
2021/06/04 06:26:43;;;;;;;5.40;4.90;;;;;;;15.81;100.00;98721.19;4994431;28;20206;-84
2021/06/04 06:29:12;;;;;;;5.30;4.80;;;;;;;15.93;100.00;98676.84;4994209;28;20286;-83
2021/06/04 06:31:47;;;;;;;5.43;4.93;;;;;;;16.05;100.00;98627.19;4994367;28;20228;-84
2021/06/04 06:34:22;;;;;;;5.33;4.70;;;;;;;16.02;100.00;98571.75;4993710;28;20332;-85
2021/06/04 06:36:51;;;;;;;7.17;5.37;;;;;;;16.07;100.00;98540.34;4994177;28;20252;-84
2021/06/04 06:39:27;;;;;;;5.40;4.73;;;;;;;16.08;100.00;98550.84;4993723;28;20202;-84
2021/06/04 06:41:55;;;;;;;6.67;5.60;;;;;;;16.19;100.00;98533.13;4994237;28;20301;-83
2021/06/04 06:44:22;;;;;;;5.60;5.07;;;;;;;16.32;100.00;98533.69;4994010;28;20206;-83
2021/06/04 06:46:51;;;;;;;6.03;5.47;;;;;;;16.40;100.00;98517.88;4993838;28;20206;-83
2021/06/04 06:49:18;;;;;;;6.40;5.23;;;;;;;16.54;100.00;98535.19;4993853;28;20266;-83
2021/06/04 06:51:47;;;;;;;7.90;4.67;;;;;;;16.59;100.00;98498.44;4993763;28;20275;-83
2021/06/04 06:54:17;;;;;;;7.63;4.93;;;;;;;16.80;100.00;98455.78;4994139;28;20629;-83
2021/06/04 06:56:45;;;;;;;6.63;4.10;;;;;;;16.89;100.00;98391.19;4993510;28;20644;-84
2021/06/04 06:59:13;;;;;;;13.87;4.53;;;;;;;17.10;100.00;98354.59;4993894;28;20226;-84
2021/06/04 07:01:40;;;;;;;6.63;4.47;;;;;;;17.34;100.00;98334.59;4994190;28;20673;-83
2021/06/04 07:04:10;;;;;;;10.77;3.80;;;;;;;17.40;100.00;98272.84;4993325;28;20204;-84
2021/06/04 07:06:42;;;;;;;4.77;3.93;;;;;;;17.57;100.00;98285.28;4993526;28;20204;-84
2021/06/04 07:09:13;;;;;;;3.40;3.00;;;;;;;17.52;100.00;98189.19;4993448;28;20212;-84
2021/06/04 07:11:49;;;;;;;3.23;3.03;;;;;;;17.60;100.00;98114.00;4993776;28;20266;-83
2021/06/04 07:14:21;;;;;;;4.47;3.10;;;;;;;17.64;100.00;98109.19;4993785;28;20616;-83
2021/06/04 07:16:48;;;;;;;3.77;3.30;;;;;;;17.87;100.00;98109.47;4993408;28;20203;-84
2021/06/04 07:19:15;;;;;;;4.77;3.60;;;;;;;17.94;100.00;98092.75;4993017;28;20207;-84
2021/06/04 07:21:53;;;;;;;3.50;3.20;;;;;;;17.99;100.00;98037.22;4993652;28;20192;-83
2021/06/04 07:24:31;;;;;;;2.77;2.57;;;;;;;18.02;100.00;97953.59;4993225;28;20219;-84
2021/06/04 07:27:00;;;;;;;3.33;2.70;;;;;;;18.02;100.00;97933.13;4993207;28;20621;-84
2021/06/04 07:29:29;;;;;;;3.40;3.20;;;;;;;18.21;100.00;97941.78;4993020;28;20669;-83
2021/06/04 07:31:57;;;;;;;3.07;2.47;;;;;;;18.27;100.00;97915.34;4993080;28;20228;-84
2021/06/04 07:34:28;;;;;;;2.60;2.30;;;;;;;18.53;100.00;97869.03;4991616;28;20231;-83
2021/06/04 07:37:00;;;;;;;3.77;3.33;;;;;;;18.43;100.00;97820.50;4992570;28;20743;-84
2021/06/04 07:39:33;;;;;;;6.60;3.40;;;;;;;18.60;100.00;97880.72;4993169;28;20586;-83
2021/06/04 07:42:00;;;;;;;3.93;3.13;;;;;;;18.85;100.00;97899.31;4992998;28;20676;-85
2021/06/04 07:44:28;;;;;;;4.73;2.30;;;;;;;18.62;100.00;97774.00;4993085;28;20196;-83
2021/06/04 07:47:01;;;;;;;2.00;1.90;;;;;;;18.56;100.00;97780.00;4992474;28;20200;-83
2021/06/04 07:49:28;;;;;;;4.43;2.90;;;;;;;18.53;100.00;97850.41;4992760;28;20207;-83
2021/06/04 07:51:59;;;;;;;3.33;2.77;;;;;;;18.46;100.00;97821.00;4992046;28;20220;-84
2021/06/04 07:54:33;;;;;;;2.20;2.00;;;;;;;18.42;100.00;97757.59;4992665;28;20212;-85
2021/06/04 07:57:01;;;;;;;6.20;3.17;;;;;;;18.38;100.00;97742.97;4992123;28;20180;-83
2021/06/04 07:59:28;;;;;;;5.00;2.73;;;;;;;18.52;100.00;97719.13;4992892;28;20196;-81
2021/06/04 08:01:55;;;;;;;3.40;2.63;;;;;;;18.46;100.00;97729.63;4992840;28;20656;-85
2021/06/04 08:04:23;;;;;;;4.47;2.43;;;;;;;18.72;100.00;97804.78;4992064;28;20200;-86
2021/06/04 08:06:55;;;;;;;2.50;2.30;;;;;;;18.91;100.00;97786.72;4992941;28;20212;-87
2021/06/04 08:09:22;;;;;;;3.70;3.00;;;;;;;18.98;100.00;97795.66;4993073;28;20204;-88
2021/06/04 08:12:02;;;;;;;2.80;2.20;;;;;;;18.90;100.00;97787.72;4992653;28;20220;-87
2021/06/04 08:14:31;;;;;;;5.90;2.60;;;;;;;18.66;100.00;97783.31;4992374;28;20199;-86
2021/06/04 08:17:00;;;;;;;4.37;3.13;;;;;;;18.76;100.00;97814.09;4992823;28;20204;-87
2021/06/04 08:19:28;;;;;;;2.80;2.47;;;;;;;18.80;100.00;97800.44;4991930;28;20200;-87
2021/06/04 08:21:56;;;;;;;3.73;2.50;;;;;;;18.85;100.00;97828.22;4992579;28;20200;-88
2021/06/04 08:24:31;;;;;;;3.00;2.80;;;;;;;18.91;100.00;97786.72;4993099;28;20274;-88
2021/06/04 08:27:02;;;;;;;5.23;3.27;;;;;;;18.81;100.00;97765.66;4992930;28;20196;-87
2021/06/04 08:29:30;;;;;;;2.77;2.47;;;;;;;18.72;100.00;97718.75;4993252;28;20601;-88
2021/06/04 08:31:58;;;;;;;5.03;2.77;;;;;;;18.66;100.00;97741.53;4992884;28;20228;-88
2021/06/04 08:34:30;;;;;;;3.33;2.80;;;;;;;18.63;100.00;97725.88;4991085;28;20228;-88
2021/06/04 08:36:57;;;;;;;3.27;2.23;;;;;;;18.71;100.00;97751.69;4999164;28;20227;-85
2021/06/04 08:39:30;;;;;;;4.20;2.70;;;;;;;18.71;100.00;97759.66;4998110;28;20196;-87
2021/06/04 08:42:08;;;;;;;4.73;2.37;;;;;;;18.76;100.00;97770.66;4998863;28;20215;-85
2021/06/04 08:44:47;;;;;;;3.37;2.90;;;;;;;18.73;100.00;97758.50;4997687;28;20194;-86
2021/06/04 08:47:17;;;;;;;5.80;3.20;;;;;;;18.80;100.00;97717.84;5006159;28;20716;-87
2021/06/04 08:50:04;;;;;;;2.33;2.13;;;;;;;18.88;100.00;97677.88;5005125;28;20260;-86
2021/06/04 08:52:40;;;;;;;4.10;3.03;;;;;;;18.97;100.00;97728.25;4996586;28;20211;-86
2021/06/04 08:55:14;;;;;;;2.60;2.13;;;;;;;19.03;100.00;97753.38;5002352;28;20220;-86
2021/06/04 08:57:52;;;;;;;4.10;2.27;;;;;;;19.20;100.00;97776.25;4997702;28;20196;-86
2021/06/04 09:00:25;;;;;;;4.00;2.87;;;;;;;19.25;100.00;97765.88;5004964;28;20192;-86
2021/06/04 09:02:58;;;;;;;3.93;2.37;;;;;;;19.57;100.00;97772.00;5004583;28;20189;-86
2021/06/04 09:05:30;;;;;;;2.40;1.90;;;;;;;19.86;100.00;97685.06;5006903;28;20188;-86
2021/06/04 09:07:58;;;;;;;2.67;2.00;;;;;;;20.10;100.00;97641.28;4999103;28;20184;-85
2021/06/04 09:10:33;;;;;;;4.67;2.33;;;;;;;20.66;100.00;97685.13;4999127;28;20200;-86
2021/06/04 09:13:11;;;;;;;4.87;2.20;;;;;;;20.52;100.00;97634.41;5000190;28;20234;-87
2021/06/04 09:15:43;;;;;;;3.50;1.77;;;;;;;20.21;100.00;97613.28;4996790;28;20185;-89
2021/06/04 09:18:15;;;;;;;2.33;2.10;;;;;;;19.82;100.00;97663.25;4992837;28;20204;-89
2021/06/04 09:20:51;;;;;;;3.07;2.50;;;;;;;19.60;100.00;97686.28;5005717;28;20207;-91
2021/06/04 09:23:29;;;;;;;4.67;2.13;;;;;;;19.66;100.00;97757.59;5012379;28;20652;-91
2021/06/04 09:26:00;;;;;;;2.63;1.90;;;;;;;19.46;100.00;97777.72;5012636;28;20213;-90
2021/06/04 09:28:33;;;;;;;2.40;2.20;;;;;;;19.46;100.00;97817.72;5012757;28;20235;-90
2021/06/04 09:31:18;;;;;;;3.03;2.20;;;;;;;19.21;100.00;97801.88;5008689;28;20262;-90
2021/06/04 09:33:47;;;;;;;3.00;2.07;;;;;;;19.12;100.00;97772.78;4994579;28;20790;-90
2021/06/04 09:36:16;;;;;;;6.47;3.47;;;;;;;19.10;100.00;97839.59;5000751;28;20734;-89
2021/06/04 09:38:49;;;;;;;2.70;2.33;;;;;;;18.95;100.00;97761.41;5015706;28;20215;-89
2021/06/04 09:41:36;;;;;;;4.27;1.93;;;;;;;19.05;100.00;97748.69;5011033;28;20195;-87
2021/06/04 09:44:14;;;;;;;2.53;1.83;;;;;;;19.00;100.00;97748.38;5001354;28;20195;-85
2021/06/04 09:46:50;;;;;;;2.93;2.27;;;;;;;18.88;100.00;97752.47;5007853;28;20196;-86
2021/06/04 09:49:29;;;;;;;3.17;2.20;;;;;;;18.86;100.00;97807.72;5000907;28;20188;-85
2021/06/04 09:52:15;;;;;;;6.13;3.67;;;;;;;19.00;100.00;97801.66;5013070;28;20204;-85
2021/06/04 09:54:42;;;;;;;8.60;2.13;;;;;;;18.89;100.00;97738.97;5013173;28;20566;-85
2021/06/04 09:57:12;;;;;;;4.43;2.60;;;;;;;18.87;100.00;97786.25;5012983;28;20214;-85
2021/06/04 09:59:40;;;;;;;2.50;1.80;;;;;;;18.85;100.00;97785.59;5012661;28;20714;-84
2021/06/04 10:02:30;;;;;;;1.80;1.70;;;;;;;18.97;100.00;97776.19;5012902;28;20246;-84
2021/06/04 10:05:12;;;;;;;2.93;1.90;;;;;;;18.92;100.00;97740.44;5013309;28;20187;-85
2021/06/04 10:07:40;;;;;;;1.97;1.87;;;;;;;18.83;100.00;97752.97;5013601;28;20242;-85
2021/06/04 10:10:14;;;;;;;5.17;2.17;;;;;;;18.86;100.00;97795.25;5014202;28;20192;-85
2021/06/04 10:12:45;;;;;;;2.20;2.00;;;;;;;18.89;100.00;97784.25;5014342;28;20255;-85
2021/06/04 10:15:17;;;;;;;3.20;2.10;;;;;;;18.81;100.00;97695.53;5014258;28;20640;-85
2021/06/04 10:17:58;;;;;;;3.70;2.30;;;;;;;18.77;100.00;97761.66;5014637;28;20184;-85
2021/06/04 10:20:35;;;;;;;3.47;2.00;;;;;;;18.80;100.00;97825.22;5014014;28;20278;-85
2021/06/04 10:23:07;;;;;;;4.63;2.53;;;;;;;18.88;100.00;97808.41;5014139;28;20246;-84
2021/06/04 10:25:41;;;;;;;4.33;2.40;;;;;;;18.84;100.00;97754.63;5014443;28;20572;-85
2021/06/04 10:28:29;;;;;;;3.50;1.80;;;;;;;18.90;100.00;97782.41;5013999;28;20249;-84
2021/06/04 10:31:06;;;;;;;3.93;2.07;;;;;;;18.93;100.00;97737.59;5014231;28;20563;-85
2021/06/04 10:33:53;;;;;;;2.47;2.27;;;;;;;18.73;100.00;97721.22;5013668;28;20239;-84
2021/06/04 10:36:22;;;;;;;2.43;1.90;;;;;;;18.61;100.00;97725.25;5013944;28;20203;-85
2021/06/04 10:38:54;;;;;;;2.10;2.00;;;;;;;18.69;100.00;97773.13;5013481;28;20257;-85
2021/06/04 10:41:27;;;;;;;3.80;2.50;;;;;;;18.88;100.00;97768.44;5013846;28;20187;-85
2021/06/04 10:44:05;;;;;;;2.63;2.03;;;;;;;18.72;100.00;97740.03;5013549;28;20188;-85
2021/06/04 10:46:37;;;;;;;2.10;1.80;;;;;;;18.81;100.00;97764.78;5014041;28;20655;-85
2021/06/04 10:49:15;;;;;;;2.50;2.30;;;;;;;18.88;100.00;97755.13;5013689;28;20242;-85
2021/06/04 10:51:50;;;;;;;5.60;2.40;;;;;;;19.15;100.00;97730.63;5013935;28;20603;-85
2021/06/04 10:54:22;;;;;;;2.10;2.00;;;;;;;19.37;100.00;97690.84;5013805;28;20245;-85
2021/06/04 10:56:59;;;;;;;8.03;2.27;;;;;;;19.56;100.00;97687.66;5013617;28;20191;-85
2021/06/04 10:59:36;;;;;;;3.47;2.60;;;;;;;20.10;100.00;97686.66;5013199;28;20191;-85
2021/06/04 11:02:16;;;;;;;2.53;2.30;;;;;;;20.23;100.00;97563.19;5013567;28;20187;-85
2021/06/04 11:04:54;;;;;;;2.27;2.07;;;;;;;20.02;100.00;97523.94;5013540;28;20183;-85
2021/06/04 11:07:28;;;;;;;7.43;3.07;;;;;;;20.10;100.00;97519.31;5013487;28;20195;-85
2021/06/04 11:10:02;;;;;;;2.97;2.37;;;;;;;20.16;100.00;97443.03;5012951;28;20183;-85
2021/06/04 11:12:48;;;;;;;4.93;2.10;;;;;;;20.33;100.00;97483.59;5013190;28;20208;-86
2021/06/04 11:15:21;;;;;;;2.93;1.80;;;;;;;20.40;100.00;97373.22;5013168;28;20191;-86
2021/06/04 11:18:00;;;;;;;1.97;1.77;;;;;;;20.18;100.00;97270.13;5013295;28;20192;-85
2021/06/04 11:20:34;;;;;;;3.70;2.60;;;;;;;20.34;100.00;97341.09;5013002;28;20215;-86
2021/06/04 11:23:06;;;;;;;2.67;2.37;;;;;;;20.31;100.00;97362.84;5013366;28;20210;-85
2021/06/04 11:25:41;;;;;;;3.87;2.60;;;;;;;20.22;100.00;97362.16;5013116;28;20188;-86
2021/06/04 11:28:22;;;;;;;2.97;2.50;;;;;;;20.01;100.00;97404.88;5012901;28;20226;-86
2021/06/04 11:30:53;;;;;;;4.23;2.10;;;;;;;19.90;100.00;97425.69;5012945;28;20198;-86
2021/06/04 11:33:25;;;;;;;2.43;2.23;;;;;;;19.73;100.00;97432.28;5012642;28;20254;-85
2021/06/04 11:35:55;;;;;;;2.53;1.97;;;;;;;19.82;100.00;97481.03;5013288;28;20194;-86
2021/06/04 11:38:33;;;;;;;3.50;2.80;;;;;;;20.02;100.00;97475.91;5012796;28;20191;-86
2021/06/04 11:41:10;;;;;;;2.30;2.00;;;;;;;20.04;100.00;97432.00;5012988;28;20250;-85
2021/06/04 11:43:39;;;;;;;5.17;2.10;;;;;;;19.97;100.00;97393.75;5013060;28;20183;-86
2021/06/04 11:46:19;;;;;;;2.17;2.07;;;;;;;20.31;100.00;97377.03;5012814;28;20203;-86